sensor_id;sensor_type;location;lat;lon;timestamp;pressure;altitude;pressure_sealevel;temperature;humidity
69245;BME280;56357;52.304;4.870;2023-04-01T00:01:07;99215.59;;;19.09;55.45
69245;BME280;56357;52.304;4.870;2023-04-01T00:03:33;99209.16;;;19.08;55.09
69245;BME280;56357;52.304;4.870;2023-04-01T00:06:01;99210.63;;;19.06;55.51
69245;BME280;56357;52.304;4.870;2023-04-01T00:08:28;99212.94;;;19.04;55.43
69245;BME280;56357;52.304;4.870;2023-04-01T00:10:55;99212.75;;;19.00;55.72
69245;BME280;56357;52.304;4.870;2023-04-01T00:13:24;99213.75;;;19.04;55.34
69245;BME280;56357;52.304;4.870;2023-04-01T00:15:51;99218.53;;;19.04;55.30
69245;BME280;56357;52.304;4.870;2023-04-01T00:18:18;99215.22;;;19.02;55.35
69245;BME280;56357;52.304;4.870;2023-04-01T00:20:46;99224.81;;;19.01;55.35
69245;BME280;56357;52.304;4.870;2023-04-01T00:23:13;99214.72;;;19.00;55.39
69245;BME280;56357;52.304;4.870;2023-04-01T00:25:40;99215.91;;;18.99;55.17
69245;BME280;56357;52.304;4.870;2023-04-01T00:28:07;99224.16;;;18.95;55.26
69245;BME280;56357;52.304;4.870;2023-04-01T00:30:33;99221.50;;;18.99;55.17
69245;BME280;56357;52.304;4.870;2023-04-01T00:32:59;99218.03;;;18.93;55.09
69245;BME280;56357;52.304;4.870;2023-04-01T00:35:26;99220.50;;;18.95;55.54
69245;BME280;56357;52.304;4.870;2023-04-01T00:37:52;99229.75;;;18.95;55.38
69245;BME280;56357;52.304;4.870;2023-04-01T00:40:29;99224.47;;;18.94;55.02
69245;BME280;56357;52.304;4.870;2023-04-01T00:42:56;99226.78;;;18.92;55.20
69245;BME280;56357;52.304;4.870;2023-04-01T00:45:43;99224.28;;;18.90;55.38
69245;BME280;56357;52.304;4.870;2023-04-01T00:48:14;99224.94;;;18.87;54.81
69245;BME280;56357;52.304;4.870;2023-04-01T00:50:46;99225.78;;;18.88;55.36
69245;BME280;56357;52.304;4.870;2023-04-01T00:53:14;99230.56;;;18.87;55.13
69245;BME280;56357;52.304;4.870;2023-04-01T00:55:47;99228.06;;;18.86;55.12
69245;BME280;56357;52.304;4.870;2023-04-01T00:58:17;99228.59;;;18.88;55.24
69245;BME280;56357;52.304;4.870;2023-04-01T01:00:46;99229.53;;;18.83;55.32
69245;BME280;56357;52.304;4.870;2023-04-01T01:03:14;99233.53;;;18.82;55.36
69245;BME280;56357;52.304;4.870;2023-04-01T01:14:13;99246.72;;;18.82;55.36
69245;BME280;56357;52.304;4.870;2023-04-01T01:16:48;99252.16;;;18.78;55.25
69245;BME280;56357;52.304;4.870;2023-04-01T01:19:33;99244.53;;;18.79;55.18
69245;BME280;56357;52.304;4.870;2023-04-01T01:22:31;99243.56;;;18.75;55.23
69245;BME280;56357;52.304;4.870;2023-04-01T01:31:11;99252.25;;;18.73;55.20
69245;BME280;56357;52.304;4.870;2023-04-01T01:33:54;99252.25;;;18.73;55.08
69245;BME280;56357;52.304;4.870;2023-04-01T01:36:26;99249.78;;;18.72;55.17
69245;BME280;56357;52.304;4.870;2023-04-01T01:38:55;99255.41;;;18.72;55.30
69245;BME280;56357;52.304;4.870;2023-04-01T01:41:25;99260.19;;;18.71;55.38
69245;BME280;56357;52.304;4.870;2023-04-01T01:43:53;99265.78;;;18.71;55.35
69245;BME280;56357;52.304;4.870;2023-04-01T01:46:24;99268.41;;;18.68;55.33
69245;BME280;56357;52.304;4.870;2023-04-01T01:48:53;99268.09;;;18.69;55.25
69245;BME280;56357;52.304;4.870;2023-04-01T01:51:21;99269.41;;;18.72;55.38
69245;BME280;56357;52.304;4.870;2023-04-01T01:53:48;99280.78;;;18.67;55.03
69245;BME280;56357;52.304;4.870;2023-04-01T01:56:16;99279.13;;;18.66;55.15
69245;BME280;56357;52.304;4.870;2023-04-01T01:58:47;99281.59;;;18.67;55.04
69245;BME280;56357;52.304;4.870;2023-04-01T02:01:18;99288.69;;;18.65;55.34
69245;BME280;56357;52.304;4.870;2023-04-01T02:03:47;99290.00;;;18.67;55.06
69245;BME280;56357;52.304;4.870;2023-04-01T02:06:17;99286.41;;;18.67;55.26
69245;BME280;56357;52.304;4.870;2023-04-01T02:08:52;99298.25;;;18.64;55.07
69245;BME280;56357;52.304;4.870;2023-04-01T02:11:26;99297.13;;;18.65;54.95
69245;BME280;56357;52.304;4.870;2023-04-01T02:13:58;99297.75;;;18.62;55.04
69245;BME280;56357;52.304;4.870;2023-04-01T02:16:32;99310.13;;;18.61;55.23
69245;BME280;56357;52.304;4.870;2023-04-01T02:19:02;99312.59;;;18.62;55.03
69245;BME280;56357;52.304;4.870;2023-04-01T02:21:33;99310.13;;;18.61;55.11
69245;BME280;56357;52.304;4.870;2023-04-01T02:24:02;99315.72;;;18.61;55.11
69245;BME280;56357;52.304;4.870;2023-04-01T02:26:30;99327.56;;;18.58;55.27
69245;BME280;56357;52.304;4.870;2023-04-01T02:28:59;99324.47;;;18.59;55.14
69245;BME280;56357;52.304;4.870;2023-04-01T02:31:26;99328.72;;;18.57;55.00
69245;BME280;56357;52.304;4.870;2023-04-01T02:33:54;99330.50;;;18.53;55.12
69245;BME280;56357;52.304;4.870;2023-04-01T02:36:21;99338.41;;;18.51;55.19
69245;BME280;56357;52.304;4.870;2023-04-01T02:38:47;99339.06;;;18.48;55.39
69245;BME280;56357;52.304;4.870;2023-04-01T02:41:14;99334.59;;;18.47;55.49
69245;BME280;56357;52.304;4.870;2023-04-01T02:43:41;99348.59;;;18.47;55.34
69245;BME280;56357;52.304;4.870;2023-04-01T02:46:07;99342.38;;;18.50;55.17
69245;BME280;56357;52.304;4.870;2023-04-01T02:48:34;99348.59;;;18.47;55.30
69245;BME280;56357;52.304;4.870;2023-04-01T02:51:00;99357.19;;;18.50;55.33
69245;BME280;56357;52.304;4.870;2023-04-01T02:53:27;99362.50;;;18.52;55.15
69245;BME280;56357;52.304;4.870;2023-04-01T02:55:53;99354.09;;;18.52;55.06
69245;BME280;56357;52.304;4.870;2023-04-01T02:58:21;99358.03;;;18.51;55.33
69245;BME280;56357;52.304;4.870;2023-04-01T03:00:47;99365.00;;;18.53;54.92
69245;BME280;56357;52.304;4.870;2023-04-01T03:03:13;99358.81;;;18.43;55.32
69245;BME280;56357;52.304;4.870;2023-04-01T03:05:40;99372.53;;;18.44;55.43
69245;BME280;56357;52.304;4.870;2023-04-01T03:08:06;99383.91;;;18.48;55.45
69245;BME280;56357;52.304;4.870;2023-04-01T03:10:33;99378.72;;;18.41;55.71
69245;BME280;56357;52.304;4.870;2023-04-01T03:12:59;99380.59;;;18.46;55.64
69245;BME280;56357;52.304;4.870;2023-04-01T03:15:26;99388.38;;;18.49;55.42
69245;BME280;56357;52.304;4.870;2023-04-01T03:17:52;99386.72;;;18.48;55.47
69245;BME280;56357;52.304;4.870;2023-04-01T03:20:18;99398.97;;;18.52;55.46
69245;BME280;56357;52.304;4.870;2023-04-01T03:22:45;99400.59;;;18.53;55.44
69245;BME280;56357;52.304;4.870;2023-04-01T03:25:12;99402.56;;;18.52;55.65
69245;BME280;56357;52.304;4.870;2023-04-01T03:27:39;99408.50;;;18.51;55.70
69245;BME280;56357;52.304;4.870;2023-04-01T03:30:06;99409.66;;;18.50;55.51
69245;BME280;56357;52.304;4.870;2023-04-01T03:32:32;99415.78;;;18.52;55.51
69245;BME280;56357;52.304;4.870;2023-04-01T03:34:59;99433.72;;;18.51;55.53
69245;BME280;56357;52.304;4.870;2023-04-01T03:37:25;99434.38;;;18.48;55.59
69245;BME280;56357;52.304;4.870;2023-04-01T03:39:52;99435.41;;;18.52;55.50
69245;BME280;56357;52.304;4.870;2023-04-01T03:42:18;99440.19;;;18.51;55.67
69245;BME280;56357;52.304;4.870;2023-04-01T03:44:45;99445.78;;;18.51;55.40
69245;BME280;56357;52.304;4.870;2023-04-01T03:47:11;99455.84;;;18.52;55.49
69245;BME280;56357;52.304;4.870;2023-04-01T03:49:38;99454.19;;;18.51;55.72
69245;BME280;56357;52.304;4.870;2023-04-01T03:52:08;99453.34;;;18.51;55.82
69245;BME280;56357;52.304;4.870;2023-04-01T03:54:35;99464.56;;;18.51;55.79
69245;BME280;56357;52.304;4.870;2023-04-01T03:57:02;99470.19;;;18.51;55.93
69245;BME280;56357;52.304;4.870;2023-04-01T03:59:28;99469.84;;;18.52;55.56
69245;BME280;56357;52.304;4.870;2023-04-01T04:01:54;99474.84;;;18.55;55.67
69245;BME280;56357;52.304;4.870;2023-04-01T04:04:21;99472.97;;;18.51;55.88
69245;BME280;56357;52.304;4.870;2023-04-01T04:06:47;99479.94;;;18.53;55.69
69245;BME280;56357;52.304;4.870;2023-04-01T04:09:14;99481.59;;;18.54;55.57
69245;BME280;56357;52.304;4.870;2023-04-01T04:11:40;99490.00;;;18.54;55.89
69245;BME280;56357;52.304;4.870;2023-04-01T04:14:07;99490.19;;;18.58;55.66
69245;BME280;56357;52.304;4.870;2023-04-01T04:16:35;99491.03;;;18.58;55.70
69245;BME280;56357;52.304;4.870;2023-04-01T04:19:03;99504.09;;;18.63;55.65
69245;BME280;56357;52.304;4.870;2023-04-01T04:21:30;99499.75;;;18.57;55.66
69245;BME280;56357;52.304;4.870;2023-04-01T04:23:58;99507.75;;;18.63;55.66
69245;BME280;56357;52.304;4.870;2023-04-01T04:26:26;99511.81;;;18.57;55.72
69245;BME280;56357;52.304;4.870;2023-04-01T04:28:53;99516.59;;;18.57;55.82
69245;BME280;56357;52.304;4.870;2023-04-01T04:31:24;99525.38;;;18.64;55.98
69245;BME280;56357;52.304;4.870;2023-04-01T04:33:52;99527.78;;;18.57;55.87
69245;BME280;56357;52.304;4.870;2023-04-01T04:36:19;99523.59;;;18.68;55.60
69245;BME280;56357;52.304;4.870;2023-04-01T04:38:46;99524.75;;;18.67;55.66
69245;BME280;56357;52.304;4.870;2023-04-01T04:41:14;99540.22;;;18.64;55.79
69245;BME280;56357;52.304;4.870;2023-04-01T04:43:41;99539.72;;;18.62;55.59
69245;BME280;56357;52.304;4.870;2023-04-01T04:46:09;99545.53;;;18.66;55.77
69245;BME280;56357;52.304;4.870;2023-04-01T04:48:36;99545.53;;;18.66;55.79
69245;BME280;56357;52.304;4.870;2023-04-01T04:51:03;99549.06;;;18.58;55.88
69245;BME280;56357;52.304;4.870;2023-04-01T04:53:29;99553.75;;;18.62;55.99
69245;BME280;56357;52.304;4.870;2023-04-01T04:55:56;99557.91;;;18.65;55.82
69245;BME280;56357;52.304;4.870;2023-04-01T04:58:22;99565.59;;;18.59;56.05
69245;BME280;56357;52.304;4.870;2023-04-01T05:00:48;99574.72;;;18.65;55.82
69245;BME280;56357;52.304;4.870;2023-04-01T05:03:15;99581.97;;;18.66;55.68
69245;BME280;56357;52.304;4.870;2023-04-01T05:05:49;99578.84;;;18.67;55.96
69245;BME280;56357;52.304;4.870;2023-04-01T05:08:16;99588.44;;;18.53;56.47
69245;BME280;56357;52.304;4.870;2023-04-01T05:10:42;99586.25;;;18.63;56.26
69245;BME280;56357;52.304;4.870;2023-04-01T05:13:09;99590.84;;;18.59;56.22
69245;BME280;56357;52.304;4.870;2023-04-01T05:15:36;99593.31;;;18.61;56.46
69245;BME280;56357;52.304;4.870;2023-04-01T05:18:03;99595.47;;;18.64;56.50
69245;BME280;56357;52.304;4.870;2023-04-01T05:20:29;99596.84;;;18.66;56.22
69245;BME280;56357;52.304;4.870;2023-04-01T05:22:56;99605.56;;;18.65;56.18
69245;BME280;56357;52.304;4.870;2023-04-01T05:25:23;99601.41;;;18.62;56.29
69245;BME280;56357;52.304;4.870;2023-04-01T05:27:50;99612.81;;;18.66;56.35
69245;BME280;56357;52.304;4.870;2023-04-01T05:30:16;99606.41;;;18.65;56.15
69245;BME280;56357;52.304;4.870;2023-04-01T05:32:43;99625.72;;;18.67;56.23
69245;BME280;56357;52.304;4.870;2023-04-01T05:35:10;99623.72;;;18.67;55.99
69245;BME280;56357;52.304;4.870;2023-04-01T05:37:37;99629.25;;;18.72;56.19
69245;BME280;56357;52.304;4.870;2023-04-01T05:40:04;99636.09;;;18.66;56.12
69245;BME280;56357;52.304;4.870;2023-04-01T05:42:30;99640.13;;;18.74;56.15
69245;BME280;56357;52.304;4.870;2023-04-01T05:44:57;99643.34;;;18.67;56.74
69245;BME280;56357;52.304;4.870;2023-04-01T05:47:23;99644.41;;;18.58;56.39
69245;BME280;56357;52.304;4.870;2023-04-01T05:49:50;99650.13;;;18.66;56.38
69245;BME280;56357;52.304;4.870;2023-04-01T05:52:16;99658.84;;;18.65;56.50
69245;BME280;56357;52.304;4.870;2023-04-01T05:54:43;99658.72;;;18.70;56.28
69245;BME280;56357;52.304;4.870;2023-04-01T05:57:09;99668.59;;;18.67;56.42
69245;BME280;56357;52.304;4.870;2023-04-01T05:59:35;99663.72;;;18.73;56.50
69245;BME280;56357;52.304;4.870;2023-04-01T06:02:02;99661.53;;;18.70;56.29
69245;BME280;56357;52.304;4.870;2023-04-01T06:04:33;99665.50;;;18.69;56.40
69245;BME280;56357;52.304;4.870;2023-04-01T06:07:01;99672.22;;;18.68;56.44
69245;BME280;56357;52.304;4.870;2023-04-01T06:09:29;99674.97;;;18.59;56.33
69245;BME280;56357;52.304;4.870;2023-04-01T06:12:14;99678.56;;;18.73;56.46
69245;BME280;56357;52.304;4.870;2023-04-01T06:14:50;99684.50;;;18.58;57.28
69245;BME280;56357;52.304;4.870;2023-04-01T06:17:38;99684.81;;;18.57;57.35
69245;BME280;56357;52.304;4.870;2023-04-01T06:33:56;99717.03;;;18.73;57.49
69245;BME280;56357;52.304;4.870;2023-04-01T06:36:46;99710.25;;;18.74;57.68
69245;BME280;56357;52.304;4.870;2023-04-01T06:42:38;99727.81;;;18.79;57.50
69245;BME280;56357;52.304;4.870;2023-04-01T06:50:58;99736.94;;;18.85;56.91
69245;BME280;56357;52.304;4.870;2023-04-01T06:56:16;99754.94;;;18.84;56.94
69245;BME280;56357;52.304;4.870;2023-04-01T06:58:46;99762.19;;;18.71;57.24
69245;BME280;56357;52.304;4.870;2023-04-01T07:01:23;99762.94;;;18.63;57.89
69245;BME280;56357;52.304;4.870;2023-04-01T07:04:10;99767.56;;;18.54;58.16
69245;BME280;56357;52.304;4.870;2023-04-01T07:06:54;99778.09;;;18.76;58.09
69245;BME280;56357;52.304;4.870;2023-04-01T07:09:31;99778.94;;;18.76;58.38
69245;BME280;56357;52.304;4.870;2023-04-01T07:12:02;99785.97;;;18.74;58.49
69245;BME280;56357;52.304;4.870;2023-04-01T07:14:35;99780.19;;;18.84;57.80
69245;BME280;56357;52.304;4.870;2023-04-01T07:17:14;99794.94;;;18.89;57.91
69245;BME280;56357;52.304;4.870;2023-04-01T07:19:48;99797.59;;;18.81;58.61
69245;BME280;56357;52.304;4.870;2023-04-01T07:22:34;99799.91;;;18.79;59.00
69245;BME280;56357;52.304;4.870;2023-04-01T07:25:14;99801.38;;;18.90;58.56
69245;BME280;56357;52.304;4.870;2023-04-01T07:27:45;99811.25;;;18.87;58.67
69245;BME280;56357;52.304;4.870;2023-04-01T07:30:16;99812.78;;;18.80;58.61
69245;BME280;56357;52.304;4.870;2023-04-01T07:35:36;99818.72;;;18.78;59.32
69245;BME280;56357;52.304;4.870;2023-04-01T07:38:19;99824.19;;;18.70;59.78
69245;BME280;56357;52.304;4.870;2023-04-01T07:42:09;99819.75;;;18.82;59.71
69245;BME280;56357;52.304;4.870;2023-04-01T07:44:13;99824.88;;;18.94;58.88
69245;BME280;56357;52.304;4.870;2023-04-01T07:46:59;99829.84;;;18.97;58.52
69245;BME280;56357;52.304;4.870;2023-04-01T07:49:53;99832.31;;;18.98;58.46
69245;BME280;56357;52.304;4.870;2023-04-01T07:52:43;99838.25;;;18.97;58.37
69245;BME280;56357;52.304;4.870;2023-04-01T07:56:22;99845.22;;;18.99;57.47
69245;BME280;56357;52.304;4.870;2023-04-01T08:09:50;99868.59;;;18.95;56.27
69245;BME280;56357;52.304;4.870;2023-04-01T08:15:37;99877.22;;;18.98;56.19
69245;BME280;56357;52.304;4.870;2023-04-01T08:18:23;99878.19;;;18.94;56.40
69245;BME280;56357;52.304;4.870;2023-04-01T08:21:08;99883.03;;;19.02;56.09
69245;BME280;56357;52.304;4.870;2023-04-01T08:23:40;99892.09;;;18.99;56.24
69245;BME280;56357;52.304;4.870;2023-04-01T08:26:14;99885.22;;;18.91;56.71
69245;BME280;56357;52.304;4.870;2023-04-01T08:29:08;99894.91;;;18.99;56.65
69245;BME280;56357;52.304;4.870;2023-04-01T08:31:52;99890.94;;;19.00;56.51
69245;BME280;56357;52.304;4.870;2023-04-01T08:34:25;99899.47;;;18.95;56.80
69245;BME280;56357;52.304;4.870;2023-04-01T08:37:01;99909.56;;;18.96;56.58
69245;BME280;56357;52.304;4.870;2023-04-01T08:39:42;99908.28;;;19.02;56.50
69245;BME280;56357;52.304;4.870;2023-04-01T08:50:46;99920.25;;;18.94;56.60
69245;BME280;56357;52.304;4.870;2023-04-01T08:56:14;99931.16;;;18.95;56.75
69245;BME280;56357;52.304;4.870;2023-04-01T09:04:52;99945.38;;;18.85;56.70
69245;BME280;56357;52.304;4.870;2023-04-01T09:16:27;99951.75;;;19.04;56.51
69245;BME280;56357;52.304;4.870;2023-04-01T09:19:28;99958.81;;;19.02;57.33
69245;BME280;56357;52.304;4.870;2023-04-01T09:22:25;99951.75;;;19.04;57.61
69245;BME280;56357;52.304;4.870;2023-04-01T09:25:15;99959.84;;;19.06;57.50
69245;BME280;56357;52.304;4.870;2023-04-01T09:28:27;99965.47;;;19.06;57.76
69245;BME280;56357;52.304;4.870;2023-04-01T09:31:19;99960.59;;;18.98;58.22
69245;BME280;56357;52.304;4.870;2023-04-01T09:34:09;99965.41;;;19.11;59.15
69245;BME280;56357;52.304;4.870;2023-04-01T09:37:15;99973.28;;;19.09;58.87
69245;BME280;56357;52.304;4.870;2023-04-01T09:39:37;99972.44;;;19.08;60.27
69245;BME280;56357;52.304;4.870;2023-04-01T09:44:41;99985.56;;;19.13;59.12
69245;BME280;56357;52.304;4.870;2023-04-01T09:53:42;99988.88;;;19.01;59.07
69245;BME280;56357;52.304;4.870;2023-04-01T09:59:10;99994.19;;;19.16;58.41
69245;BME280;56357;52.304;4.870;2023-04-01T10:01:56;100001.56;;;19.12;58.50
69245;BME280;56357;52.304;4.870;2023-04-01T10:07:44;100003.56;;;19.26;58.13
69245;BME280;56357;52.304;4.870;2023-04-01T10:10:31;100020.06;;;19.13;58.75
69245;BME280;56357;52.304;4.870;2023-04-01T10:13:27;100012.38;;;19.05;58.97
69245;BME280;56357;52.304;4.870;2023-04-01T10:16:22;100019.88;;;19.24;58.88
69245;BME280;56357;52.304;4.870;2023-04-01T10:27:38;100034.09;;;19.32;59.58
69245;BME280;56357;52.304;4.870;2023-04-01T10:30:32;100031.50;;;19.36;59.98
69245;BME280;56357;52.304;4.870;2023-04-01T10:41:19;100031.63;;;19.58;60.34
69245;BME280;56357;52.304;4.870;2023-04-01T10:44:16;100034.94;;;19.60;60.52
69245;BME280;56357;52.304;4.870;2023-04-01T10:47:02;100042.56;;;19.59;60.31
69245;BME280;56357;52.304;4.870;2023-04-01T11:01:13;100050.06;;;19.77;60.58
69245;BME280;56357;52.304;4.870;2023-04-01T11:07:35;100053.81;;;19.73;60.29
69245;BME280;56357;52.304;4.870;2023-04-01T11:10:33;100057.88;;;19.67;60.40
69245;BME280;56357;52.304;4.870;2023-04-01T11:34:13;100089.00;;;19.84;58.81
69245;BME280;56357;52.304;4.870;2023-04-01T11:36:58;100090.44;;;19.81;58.96
69245;BME280;56357;52.304;4.870;2023-04-01T11:39:39;100099.91;;;19.85;59.05
69245;BME280;56357;52.304;4.870;2023-04-01T11:59:08;100123.63;;;19.79;57.97
69245;BME280;56357;52.304;4.870;2023-04-01T12:10:19;100145.72;;;19.86;57.78
69245;BME280;56357;52.304;4.870;2023-04-01T12:20:52;100159.56;;;19.82;57.35
69245;BME280;56357;52.304;4.870;2023-04-01T12:32:22;100161.91;;;19.75;57.44
69245;BME280;56357;52.304;4.870;2023-04-01T12:45:33;100191.25;;;19.69;57.37
69245;BME280;56357;52.304;4.870;2023-04-01T12:51:11;100196.25;;;19.72;57.39
69245;BME280;56357;52.304;4.870;2023-04-01T13:04:48;100208.34;;;19.73;57.02
69245;BME280;56357;52.304;4.870;2023-04-01T13:07:30;100213.72;;;19.69;57.02
69245;BME280;56357;52.304;4.870;2023-04-01T13:10:31;100219.06;;;19.71;57.08
69245;BME280;56357;52.304;4.870;2023-04-01T13:16:24;100228.22;;;19.76;56.96
69245;BME280;56357;52.304;4.870;2023-04-01T13:19:21;100233.63;;;19.73;56.89
69245;BME280;56357;52.304;4.870;2023-04-01T13:21:54;100231.03;;;19.76;56.91
69245;BME280;56357;52.304;4.870;2023-04-01T13:27:18;100245.63;;;19.78;56.56
69245;BME280;56357;52.304;4.870;2023-04-01T13:30:24;100247.38;;;19.74;56.71
69245;BME280;56357;52.304;4.870;2023-04-01T13:36:02;100260.41;;;19.65;56.84
69245;BME280;56357;52.304;4.870;2023-04-01T13:41:54;100266.13;;;19.60;56.90
69245;BME280;56357;52.304;4.870;2023-04-01T13:44:56;100269.03;;;19.55;56.87
69245;BME280;56357;52.304;4.870;2023-04-01T13:47:53;100274.03;;;19.58;56.55
69245;BME280;56357;52.304;4.870;2023-04-01T14:01:47;100289.81;;;19.54;56.42
69245;BME280;56357;52.304;4.870;2023-04-01T14:07:13;100301.66;;;19.51;56.55
69245;BME280;56357;52.304;4.870;2023-04-01T14:12:43;100315.75;;;19.46;57.21
69245;BME280;56357;52.304;4.870;2023-04-01T14:15:48;100321.00;;;19.34;57.84
69245;BME280;56357;52.304;4.870;2023-04-01T14:20:53;100335.81;;;19.40;57.38
69245;BME280;56357;52.304;4.870;2023-04-01T14:34:53;100357.44;;;19.39;57.57
69245;BME280;56357;52.304;4.870;2023-04-01T14:48:58;100379.06;;;19.39;57.34
69245;BME280;56357;52.304;4.870;2023-04-01T14:51:32;100379.38;;;19.37;57.35
69245;BME280;56357;52.304;4.870;2023-04-01T14:54:12;100382.53;;;19.31;57.73
69245;BME280;56357;52.304;4.870;2023-04-01T14:56:51;100388.94;;;19.31;57.81
69245;BME280;56357;52.304;4.870;2023-04-01T15:04:46;100407.22;;;19.34;57.62
69245;BME280;56357;52.304;4.870;2023-04-01T15:13:21;100416.56;;;19.24;57.62
69245;BME280;56357;52.304;4.870;2023-04-01T15:16:21;100426.09;;;19.23;57.32
69245;BME280;56357;52.304;4.870;2023-04-01T15:32:42;100457.25;;;19.27;56.72
69245;BME280;56357;52.304;4.870;2023-04-01T15:38:16;100466.56;;;19.22;57.14
69245;BME280;56357;52.304;4.870;2023-04-01T15:46:17;100484.53;;;19.21;58.34
69245;BME280;56357;52.304;4.870;2023-04-01T15:48:55;100494.63;;;19.22;58.49
69245;BME280;56357;52.304;4.870;2023-04-01T15:51:52;100491.59;;;19.18;58.60
69245;BME280;56357;52.304;4.870;2023-04-01T15:57:43;100510.63;;;19.22;58.85
69245;BME280;56357;52.304;4.870;2023-04-01T16:01:07;100510.00;;;19.30;60.65
69245;BME280;56357;52.304;4.870;2023-04-01T16:14:55;100533.59;;;19.29;62.13
69245;BME280;56357;52.304;4.870;2023-04-01T16:20:34;100550.13;;;19.35;61.46
69245;BME280;56357;52.304;4.870;2023-04-01T16:23:26;100554.06;;;19.29;61.68
69245;BME280;56357;52.304;4.870;2023-04-01T16:26:06;100553.81;;;19.31;61.66
69245;BME280;56357;52.304;4.870;2023-04-01T16:28:40;100563.88;;;19.32;60.97
69245;BME280;56357;52.304;4.870;2023-04-01T16:31:23;100574.28;;;19.31;60.88
69245;BME280;56357;52.304;4.870;2023-04-01T16:33:57;100584.47;;;19.22;60.97
69245;BME280;56357;52.304;4.870;2023-04-01T16:36:37;100584.97;;;19.34;60.45
69245;BME280;56357;52.304;4.870;2023-04-01T16:39:43;100591.13;;;19.36;60.10
69245;BME280;56357;52.304;4.870;2023-04-01T16:45:06;100596.19;;;19.29;59.91
69245;BME280;56357;52.304;4.870;2023-04-01T16:47:48;100610.91;;;19.16;60.33
69245;BME280;56357;52.304;4.870;2023-04-01T16:50:25;100610.91;;;19.16;59.99
69245;BME280;56357;52.304;4.870;2023-04-01T16:56:02;100619.81;;;19.23;60.34
69245;BME280;56357;52.304;4.870;2023-04-01T16:58:40;100636.72;;;19.18;60.06
69245;BME280;56357;52.304;4.870;2023-04-01T17:01:16;100645.66;;;19.25;60.24
69245;BME280;56357;52.304;4.870;2023-04-01T17:03:53;100656.44;;;19.13;60.04
69245;BME280;56357;52.304;4.870;2023-04-01T17:06:31;100659.84;;;19.05;60.46
69245;BME280;56357;52.304;4.870;2023-04-01T17:14:54;100677.00;;;19.03;60.48
69245;BME280;56357;52.304;4.870;2023-04-01T17:17:24;100681.81;;;18.98;60.45
69245;BME280;56357;52.304;4.870;2023-04-01T17:28:13;100707.53;;;19.10;59.80
69245;BME280;56357;52.304;4.870;2023-04-01T17:30:55;100712.03;;;19.11;59.84
69245;BME280;56357;52.304;4.870;2023-04-01T17:36:31;100731.13;;;19.09;59.53
69245;BME280;56357;52.304;4.870;2023-04-01T17:41:59;100745.72;;;19.06;59.61
69245;BME280;56357;52.304;4.870;2023-04-01T17:44:59;100745.72;;;19.06;59.56
69245;BME280;56357;52.304;4.870;2023-04-01T17:47:36;100758.94;;;19.05;59.47
69245;BME280;56357;52.304;4.870;2023-04-01T17:53:11;100764.25;;;19.02;59.30
69245;BME280;56357;52.304;4.870;2023-04-01T18:01:43;100784.25;;;18.90;59.61
69245;BME280;56357;52.304;4.870;2023-04-01T18:09:45;100800.19;;;20.50;54.58
69245;BME280;56357;52.304;4.870;2023-04-01T18:20:22;100827.47;;;20.78;53.51
69245;BME280;56357;52.304;4.870;2023-04-01T18:25:47;100834.66;;;20.89;53.32
69245;BME280;56357;52.304;4.870;2023-04-01T18:30:54;100860.28;;;20.87;53.60
69245;BME280;56357;52.304;4.870;2023-04-01T18:33:29;100860.75;;;20.94;53.08
69245;BME280;56357;52.304;4.870;2023-04-01T18:36:09;100873.72;;;20.95;52.99
69245;BME280;56357;52.304;4.870;2023-04-01T18:38:46;100878.50;;;20.95;52.96
69245;BME280;56357;52.304;4.870;2023-04-01T18:46:55;100884.38;;;20.98;53.01
69245;BME280;56357;52.304;4.870;2023-04-01T18:49:33;100904.66;;;21.01;52.82
69245;BME280;56357;52.304;4.870;2023-04-01T18:52:12;100912.53;;;20.98;52.92
69245;BME280;56357;52.304;4.870;2023-04-01T18:57:45;100929.69;;;21.02;52.74
69245;BME280;56357;52.304;4.870;2023-04-01T19:00:19;100931.31;;;21.08;52.66
69245;BME280;56357;52.304;4.870;2023-04-01T19:05:50;100947.38;;;21.08;52.29
69245;BME280;56357;52.304;4.870;2023-04-01T19:08:39;100953.31;;;21.06;52.52
69245;BME280;56357;52.304;4.870;2023-04-01T19:11:13;100956.16;;;20.44;54.03
69245;BME280;56357;52.304;4.870;2023-04-01T19:13:54;100965.03;;;19.63;56.69
69245;BME280;56357;52.304;4.870;2023-04-01T19:16:50;100967.94;;;19.48;57.42
69245;BME280;56357;52.304;4.870;2023-04-01T19:21:57;100983.69;;;19.39;57.38
69245;BME280;56357;52.304;4.870;2023-04-01T19:24:46;100978.63;;;19.31;57.30
69245;BME280;56357;52.304;4.870;2023-04-01T19:27:29;101000.00;;;19.22;57.75
69245;BME280;56357;52.304;4.870;2023-04-01T19:30:12;100996.63;;;19.35;57.72
69245;BME280;56357;52.304;4.870;2023-04-01T19:33:19;101016.84;;;19.37;57.31
69245;BME280;56357;52.304;4.870;2023-04-01T19:52:42;101047.19;;;19.10;58.04
69245;BME280;56357;52.304;4.870;2023-04-01T19:56:17;101068.81;;;18.94;58.37
69245;BME280;56357;52.304;4.870;2023-04-01T19:58:28;101073.59;;;18.84;58.84
69245;BME280;56357;52.304;4.870;2023-04-01T20:00:58;101073.03;;;18.97;58.32
69245;BME280;56357;52.304;4.870;2023-04-01T20:04:07;101076.13;;;19.00;58.50
69245;BME280;56357;52.304;4.870;2023-04-01T20:11:48;101098.00;;;18.83;58.87
69245;BME280;56357;52.304;4.870;2023-04-01T20:14:35;101103.31;;;18.70;59.32
69245;BME280;56357;52.304;4.870;2023-04-01T20:17:21;101115.13;;;18.87;58.79
69245;BME280;56357;52.304;4.870;2023-04-01T20:25:25;101133.94;;;18.76;59.12
69245;BME280;56357;52.304;4.870;2023-04-01T20:28:04;101126.63;;;18.70;59.46
69245;BME280;56357;52.304;4.870;2023-04-01T20:39:25;101156.66;;;18.80;58.92
69245;BME280;56357;52.304;4.870;2023-04-01T20:42:04;101160.03;;;18.77;58.48
69245;BME280;56357;52.304;4.870;2023-04-01T20:47:20;101178.84;;;18.86;58.31
69245;BME280;56357;52.304;4.870;2023-04-01T20:53:20;101194.31;;;18.94;57.81
69245;BME280;56357;52.304;4.870;2023-04-01T20:58:54;101206.63;;;18.93;57.43